Time;durP1;ratioP1;P1;durP2;ratioP2;P2;SDS_P1;SDS_P2;PMS_P1;PMS_P2;Temp;Humidity;BMP_temperature;BMP_pressure;BME280_temperature;BME280_humidity;BME280_pressure;Samples;Min_cycle;Max_cycle;Signal;HPM_P1;HPM_P2
2022/06/13 00:00:09;;;;;;;;;2.33;2.33;;;;;;;;5139787;27;12864;-75
2022/06/13 00:02:35;;;;;;;;;2.00;2.00;;;;;;;;5140995;27;8774;-74
2022/06/13 00:05:01;;;;;;;;;2.67;2.67;;;;;;;;5140784;27;9257;-74
2022/06/13 00:07:27;;;;;;;;;3.00;3.00;;;;;;;;5140593;27;8894;-74
2022/06/13 00:09:52;;;;;;;;;3.75;3.50;;;;;;;;5140001;27;11305;-74
2022/06/13 00:12:21;;;;;;;;;3.00;3.00;;;;;;;;5140766;27;8891;-74
2022/06/13 00:14:46;;;;;;;;;4.00;3.00;;;;;;;;5121974;27;9592;-74
2022/06/13 00:17:12;;;;;;;;;5.00;3.00;;;;;;;;5140236;27;9626;-74
2022/06/13 00:19:38;;;;;;;;;3.00;3.00;;;;;;;;5121478;27;8806;-73
2022/06/13 00:22:03;;;;;;;;;4.00;4.00;;;;;;;;5140386;27;8822;-74
2022/06/13 00:24:28;;;;;;;;;4.50;3.25;;;;;;;;5140357;27;10087;-74
2022/06/13 00:26:54;;;;;;;;;2.75;2.75;;;;;;;;5140347;27;10288;-74
2022/06/13 00:29:19;;;;;;;;;4.00;4.00;;;;;;;;5139986;27;10284;-74
2022/06/13 00:31:44;;;;;;;;;5.25;5.25;;;;;;;;5139937;27;11312;-74
2022/06/13 00:34:10;;;;;;;;;4.75;4.75;;;;;;;;5139853;27;11520;-74
2022/06/13 00:36:35;;;;;;;;;3.75;3.75;;;;;;;;5140702;27;10575;-74
2022/06/13 00:39:00;;;;;;;;;4.00;4.00;;;;;;;;5122239;27;8909;-73
2022/06/13 00:41:28;;;;;;;;;4.25;4.25;;;;;;;;5140448;27;11645;-74
2022/06/13 00:43:54;;;;;;;;;2.25;2.25;;;;;;;;5140242;27;9778;-74
2022/06/13 00:46:24;;;;;;;;;5.00;4.00;;;;;;;;5140080;27;9524;-75
2022/06/13 00:48:54;;;;;;;;;6.00;3.50;;;;;;;;5140262;27;11642;-74
2022/06/13 00:51:20;;;;;;;;;3.00;3.00;;;;;;;;5121940;27;12672;-74
2022/06/13 00:53:46;;;;;;;;;4.00;3.00;;;;;;;;5140080;27;11299;-74
2022/06/13 00:56:23;;;;;;;;;3.50;2.50;;;;;;;;5140594;27;8782;-74
2022/06/13 00:58:52;;;;;;;;;3.00;3.00;;;;;;;;5120051;27;13578;-74
2022/06/13 01:01:19;;;;;;;;;3.25;3.00;;;;;;;;5139740;27;10768;-74
2022/06/13 01:03:44;;;;;;;;;2.00;2.00;;;;;;;;5139263;27;9624;-74
2022/06/13 01:06:10;;;;;;;;;3.50;3.00;;;;;;;;5121270;27;10553;-74
2022/06/13 01:08:37;;;;;;;;;3.00;2.00;;;;;;;;5139622;27;10900;-74
2022/06/13 01:11:16;;;;;;;;;2.00;2.00;;;;;;;;5139305;27;9757;-74
2022/06/13 01:14:00;;;;;;;;;6.00;4.00;;;;;;;;5139974;27;9472;-73
2022/06/13 01:16:52;;;;;;;;;3.00;3.00;;;;;;;;5140424;27;9550;-75
2022/06/13 01:19:23;;;;;;;;;4.25;4.25;;;;;;;;5139234;27;9468;-75
2022/06/13 01:21:51;;;;;;;;;4.50;3.00;;;;;;;;5142482;27;11397;-75
2022/06/13 01:24:29;;;;;;;;;3.00;3.00;;;;;;;;5124633;27;12556;-76
2022/06/13 01:27:03;;;;;;;;;5.00;4.00;;;;;;;;5144161;27;10090;-75
2022/06/13 01:29:31;;;;;;;;;3.25;3.00;;;;;;;;5142430;27;9685;-75
2022/06/13 01:32:11;;;;;;;;;3.75;3.75;;;;;;;;5143367;27;10490;-75
2022/06/13 01:34:55;;;;;;;;;4.00;4.00;;;;;;;;5143064;27;9922;-75
2022/06/13 01:37:40;;;;;;;;;3.00;3.00;;;;;;;;5143253;27;12557;-76
2022/06/13 01:40:24;;;;;;;;;3.00;3.00;;;;;;;;5143512;27;9870;-75
2022/06/13 01:43:07;;;;;;;;;5.00;3.00;;;;;;;;5144040;27;9669;-73
2022/06/13 01:45:37;;;;;;;;;4.50;3.50;;;;;;;;5124454;27;9777;-74
2022/06/13 01:48:09;;;;;;;;;2.00;2.00;;;;;;;;5142863;27;11608;-75
2022/06/13 01:50:57;;;;;;;;;3.25;3.25;;;;;;;;5124925;27;13677;-75
2022/06/13 01:53:25;;;;;;;;;4.00;3.00;;;;;;;;5142903;27;11577;-74
2022/06/13 01:56:00;;;;;;;;;2.00;2.00;;;;;;;;5124448;27;11751;-73
2022/06/13 01:58:47;;;;;;;;;4.00;3.00;;;;;;;;5143033;27;10021;-74
2022/06/13 02:01:15;;;;;;;;;4.00;4.00;;;;;;;;5143163;27;9999;-73
2022/06/13 02:03:41;;;;;;;;;3.00;3.00;;;;;;;;5143119;27;9975;-73
2022/06/13 02:06:14;;;;;;;;;3.00;2.00;;;;;;;;5142769;27;10045;-73
2022/06/13 02:08:44;;;;;;;;;3.25;3.25;;;;;;;;5143217;27;9863;-76
2022/06/13 02:11:23;;;;;;;;;5.00;3.00;;;;;;;;5142720;27;10697;-74
2022/06/13 02:13:55;;;;;;;;;3.75;3.00;;;;;;;;5142679;27;11372;-74
2022/06/13 02:16:24;;;;;;;;;5.00;4.00;;;;;;;;5142714;27;10024;-74
2022/06/13 02:18:54;;;;;;;;;4.00;4.00;;;;;;;;5142865;27;11851;-73
2022/06/13 02:21:21;;;;;;;;;5.00;4.00;;;;;;;;5142819;27;10122;-73
2022/06/13 02:23:49;;;;;;;;;5.00;4.00;;;;;;;;5142662;27;9850;-73
2022/06/13 02:26:21;;;;;;;;;3.00;3.00;;;;;;;;5142805;27;9976;-73
2022/06/13 02:28:53;;;;;;;;;4.00;4.00;;;;;;;;5142097;27;10019;-72
2022/06/13 02:31:25;;;;;;;;;3.00;3.00;;;;;;;;5142263;27;9964;-74
2022/06/13 02:33:54;;;;;;;;;5.25;4.00;;;;;;;;5142265;27;9916;-74
2022/06/13 02:36:45;;;;;;;;;4.00;4.00;;;;;;;;5142328;27;10363;-73
2022/06/13 02:39:15;;;;;;;;;4.25;4.25;;;;;;;;5102169;27;9886;-74
2022/06/13 02:41:46;;;;;;;;;4.25;4.00;;;;;;;;5123255;27;10736;-73
2022/06/13 02:44:26;;;;;;;;;3.50;3.50;;;;;;;;5142207;27;10893;-74
2022/06/13 02:46:56;;;;;;;;;5.00;3.50;;;;;;;;5138115;27;11613;-73
2022/06/13 02:49:25;;;;;;;;;4.75;4.00;;;;;;;;5142023;27;9867;-74
2022/06/13 02:51:50;;;;;;;;;4.00;4.00;;;;;;;;5142180;27;11375;-73
2022/06/13 02:54:23;;;;;;;;;3.00;3.00;;;;;;;;5123200;27;10086;-75
2022/06/13 03:00:01;;;;;;;;;3.75;3.75;;;;;;;;5141103;27;11317;-75
2022/06/13 03:02:32;;;;;;;;;2.25;2.25;;;;;;;;5141106;27;10168;-74
2022/06/13 03:05:00;;;;;;;;;4.00;4.00;;;;;;;;5123396;27;10351;-74
2022/06/13 03:07:26;;;;;;;;;3.50;3.50;;;;;;;;5141388;27;11952;-74
2022/06/13 03:09:56;;;;;;;;;3.00;3.00;;;;;;;;5141510;27;11313;-74
2022/06/13 03:12:24;;;;;;;;;4.00;4.00;;;;;;;;5122600;27;8795;-74
2022/06/13 03:14:56;;;;;;;;;5.00;4.00;;;;;;;;5141756;27;10264;-74
2022/06/13 03:17:23;;;;;;;;;4.00;4.00;;;;;;;;5141579;27;10130;-74
2022/06/13 03:19:51;;;;;;;;;4.75;4.50;;;;;;;;5142072;27;10100;-74
2022/06/13 03:22:19;;;;;;;;;2.00;2.00;;;;;;;;5141729;27;10053;-74
2022/06/13 03:24:51;;;;;;;;;4.00;4.00;;;;;;;;5141601;27;11815;-74
2022/06/13 03:27:22;;;;;;;;;3.75;3.75;;;;;;;;5141553;27;9948;-74
2022/06/13 03:29:52;;;;;;;;;6.00;4.00;;;;;;;;5141879;27;11450;-74
2022/06/13 03:32:21;;;;;;;;;3.50;3.25;;;;;;;;5141159;27;11454;-74
2022/06/13 03:34:49;;;;;;;;;4.25;3.50;;;;;;;;5140747;27;11588;-74
2022/06/13 03:37:20;;;;;;;;;4.50;4.50;;;;;;;;5141242;27;11389;-74
2022/06/13 03:39:48;;;;;;;;;4.00;4.00;;;;;;;;5140721;27;10076;-75
2022/06/13 03:42:39;;;;;;;;;3.25;3.25;;;;;;;;5141703;27;10288;-74
2022/06/13 03:45:04;;;;;;;;;3.50;3.25;;;;;;;;5135043;27;11401;-74
2022/06/13 03:47:39;;;;;;;;;3.00;3.00;;;;;;;;5140323;27;10068;-74
2022/06/13 03:50:14;;;;;;;;;5.25;5.00;;;;;;;;5141142;27;10189;-76
2022/06/13 03:52:42;;;;;;;;;4.50;4.00;;;;;;;;5141159;27;10594;-77
2022/06/13 03:55:19;;;;;;;;;4.00;3.50;;;;;;;;5122574;27;13115;-73
2022/06/13 03:57:48;;;;;;;;;2.75;2.75;;;;;;;;5141064;27;10370;-74
2022/06/13 04:00:16;;;;;;;;;4.75;3.75;;;;;;;;5140155;27;11580;-74
2022/06/13 04:02:42;;;;;;;;;3.00;3.00;;;;;;;;5121843;27;10161;-73
2022/06/13 04:05:21;;;;;;;;;5.00;3.75;;;;;;;;5141322;27;11590;-73
2022/06/13 04:07:46;;;;;;;;;3.50;3.25;;;;;;;;5140729;27;11375;-73
2022/06/13 04:10:16;;;;;;;;;3.00;3.00;;;;;;;;5141483;27;10292;-72
2022/06/13 04:12:41;;;;;;;;;4.25;4.25;;;;;;;;5140816;27;8879;-72
2022/06/13 04:15:12;;;;;;;;;3.00;3.00;;;;;;;;5141035;27;11361;-72
2022/06/13 04:17:52;;;;;;;;;5.75;4.00;;;;;;;;5141258;27;11418;-73
2022/06/13 04:20:37;;;;;;;;;4.00;4.00;;;;;;;;5141025;27;10424;-73
2022/06/13 04:23:24;;;;;;;;;4.50;4.50;;;;;;;;5141020;27;10387;-72
2022/06/13 04:25:57;;;;;;;;;5.00;5.00;;;;;;;;5140700;27;10341;-72
2022/06/13 04:28:22;;;;;;;;;5.00;4.25;;;;;;;;5121120;27;14096;-74
2022/06/13 04:30:49;;;;;;;;;3.25;3.25;;;;;;;;5140782;27;10523;-73
2022/06/13 04:33:25;;;;;;;;;6.00;4.00;;;;;;;;5140541;27;10338;-73
2022/06/13 04:35:51;;;;;;;;;3.00;3.00;;;;;;;;5140055;27;11440;-72
2022/06/13 04:38:18;;;;;;;;;4.00;4.00;;;;;;;;5141008;27;10558;-75
2022/06/13 04:40:47;;;;;;;;;7.00;5.00;;;;;;;;5133801;27;8977;-71
2022/06/13 04:43:14;;;;;;;;;5.50;4.00;;;;;;;;5109621;27;10897;-72
2022/06/13 04:45:51;;;;;;;;;7.25;6.00;;;;;;;;5111096;27;10766;-72
2022/06/13 04:48:18;;;;;;;;;8.50;6.50;;;;;;;;5123252;27;10792;-72
2022/06/13 04:50:46;;;;;;;;;6.00;6.00;;;;;;;;5129096;27;11595;-71
2022/06/13 04:53:34;;;;;;;;;5.50;5.50;;;;;;;;5129535;27;11434;-71
2022/06/13 04:55:59;;;;;;;;;5.00;5.00;;;;;;;;5127804;27;11646;-71
2022/06/13 04:58:35;;;;;;;;;6.75;5.00;;;;;;;;5128270;27;10465;-71
2022/06/13 05:01:04;;;;;;;;;7.00;6.00;;;;;;;;5127099;27;8940;-71
2022/06/13 05:03:31;;;;;;;;;5.75;5.75;;;;;;;;5127716;27;10515;-73
2022/06/13 05:05:59;;;;;;;;;6.25;5.75;;;;;;;;5114308;27;12416;-71
2022/06/13 05:08:26;;;;;;;;;4.75;4.75;;;;;;;;5125932;27;10681;-73
2022/06/13 05:10:54;;;;;;;;;5.00;4.50;;;;;;;;5128267;27;10681;-72
2022/06/13 05:13:20;;;;;;;;;6.50;3.25;;;;;;;;5131087;27;12130;-73
2022/06/13 05:15:48;;;;;;;;;4.00;4.00;;;;;;;;5120779;27;11323;-80
2022/06/13 05:18:13;;;;;;;;;5.00;5.00;;;;;;;;5120082;28;11942;-77
2022/06/13 05:21:05;;;;;;;;;9.25;9.25;;;;;;;;5119497;28;10716;-77
2022/06/13 05:23:36;;;;;;;;;10.50;8.00;;;;;;;;5130956;27;11630;-82
2022/06/13 05:26:02;;;;;;;;;12.00;9.00;;;;;;;;5140337;27;22678;-80
2022/06/13 05:28:31;;;;;;;;;13.00;12.75;;;;;;;;5139478;27;10805;-81
2022/06/13 05:30:58;;;;;;;;;5.75;5.75;;;;;;;;5140440;27;21500;-84
2022/06/13 05:33:26;;;;;;;;;7.75;6.00;;;;;;;;5140062;27;22665;-77
2022/06/13 05:35:54;;;;;;;;;5.00;5.00;;;;;;;;5140364;27;11357;-74
2022/06/13 05:38:25;;;;;;;;;5.00;5.00;;;;;;;;5135849;27;10532;-74
2022/06/13 05:40:50;;;;;;;;;5.75;5.25;;;;;;;;5139832;27;10443;-79
2022/06/13 06:24:17;;;;;;;;;7.00;5.00;;;;;;;;5092334;27;1917911;-82
2022/06/13 06:26:42;;;;;;;;;8.00;7.50;;;;;;;;5143330;27;21160;-72
2022/06/13 06:29:08;;;;;;;;;5.00;5.00;;;;;;;;5145604;27;12445;-74
2022/06/13 06:31:33;;;;;;;;;9.75;9.00;;;;;;;;5145903;27;11305;-75
2022/06/13 06:33:59;;;;;;;;;8.00;7.00;;;;;;;;5144851;27;10275;-78
2022/06/13 06:36:24;;;;;;;;;19.00;16.00;;;;;;;;5147138;27;10779;-74
2022/06/13 06:38:49;;;;;;;;;5.00;5.00;;;;;;;;5144797;27;22509;-74
2022/06/13 06:41:15;;;;;;;;;6.25;5.50;;;;;;;;5144109;27;22333;-72
2022/06/13 06:43:40;;;;;;;;;9.75;5.50;;;;;;;;5127318;27;13629;-72
2022/06/13 06:46:06;;;;;;;;;5.75;4.50;;;;;;;;5144783;27;8867;-78
2022/06/13 06:48:32;;;;;;;;;13.25;11.00;;;;;;;;5145029;27;9076;-73
2022/06/13 06:50:57;;;;;;;;;10.75;9.75;;;;;;;;5145043;27;23596;-72
2022/06/13 06:53:24;;;;;;;;;11.50;10.50;;;;;;;;5142930;27;21467;-72
2022/06/13 07:01:17;;;;;;;;;78.00;63.33;;;;;;;;5142073;27;21632;-72
2022/06/13 07:03:43;;;;;;;;;20.25;17.50;;;;;;;;5142279;27;22557;-73
2022/06/13 07:06:09;;;;;;;;;4.75;4.75;;;;;;;;5143944;27;14232;-72
2022/06/13 07:08:35;;;;;;;;;5.00;4.00;;;;;;;;5140768;27;22554;-77
2022/06/13 07:13:45;;;;;;;;;4.25;4.25;;;;;;;;5152960;27;11367;-76
2022/06/13 07:16:10;;;;;;;;;5.00;5.00;;;;;;;;5153343;27;9826;-76
2022/06/13 07:18:36;;;;;;;;;5.50;5.00;;;;;;;;5155884;27;11685;-77
2022/06/13 07:21:01;;;;;;;;;5.25;5.00;;;;;;;;5137358;27;8822;-77
2022/06/13 07:23:26;;;;;;;;;21.00;17.00;;;;;;;;5156322;27;8830;-76
2022/06/13 07:25:52;;;;;;;;;11.25;10.25;;;;;;;;5155311;27;22747;-75
2022/06/13 07:28:17;;;;;;;;;7.00;4.00;;;;;;;;5155462;27;13544;-76
2022/06/13 07:30:42;;;;;;;;;7.50;5.00;;;;;;;;5155341;27;23486;-75
2022/06/13 07:33:08;;;;;;;;;5.00;5.00;;;;;;;;5155460;27;9447;-75
2022/06/13 07:35:33;;;;;;;;;6.25;5.00;;;;;;;;5140933;27;8962;-75
2022/06/13 07:38:17;;;;;;;;;4.00;4.00;;;;;;;;5129896;27;8812;-74
2022/06/13 07:40:43;;;;;;;;;4.00;4.00;;;;;;;;5123595;27;11054;-76
2022/06/13 07:43:16;;;;;;;;;5.75;5.50;;;;;;;;5120013;28;9295;-74
2022/06/13 07:45:41;;;;;;;;;4.67;3.67;;;;;;;;5126325;27;11443;-75
2022/06/13 07:48:07;;;;;;;;;20.25;17.50;;;;;;;;5131210;27;11628;-76
2022/06/13 07:50:32;;;;;;;;;7.00;6.75;;;;;;;;5127812;27;23124;-75
2022/06/13 07:52:58;;;;;;;;;9.50;9.50;;;;;;;;5129211;27;23057;-76
2022/06/13 07:55:25;;;;;;;;;9.75;9.75;;;;;;;;5130677;27;11816;-75
2022/06/13 07:57:50;;;;;;;;;9.00;8.00;;;;;;;;5136652;27;9596;-76
2022/06/13 08:00:25;;;;;;;;;3.00;2.67;;;;;;;;5131918;27;10269;-76
2022/06/13 08:02:51;;;;;;;;;8.00;5.33;;;;;;;;5131870;27;11601;-75
2022/06/13 08:05:16;;;;;;;;;5.67;5.00;;;;;;;;5128537;27;11535;-74
2022/06/13 08:07:41;;;;;;;;;19.00;17.75;;;;;;;;5130593;27;11839;-75
2022/06/13 08:10:07;;;;;;;;;11.67;10.00;;;;;;;;5128722;27;22615;-76
2022/06/13 08:12:32;;;;;;;;;6.33;5.33;;;;;;;;5129318;27;11592;-78
2022/06/13 08:14:57;;;;;;;;;13.67;13.00;;;;;;;;5129898;27;23515;-78
2022/06/13 08:17:23;;;;;;;;;7.00;7.00;;;;;;;;5131832;27;22870;-75
2022/06/13 08:19:50;;;;;;;;;6.33;6.33;;;;;;;;5134995;27;22290;-75
2022/06/13 08:22:15;;;;;;;;;8.00;6.00;;;;;;;;5132897;27;11684;-75
2022/06/13 08:24:41;;;;;;;;;6.33;5.00;;;;;;;;5102058;28;13326;-74
2022/06/13 08:27:06;;;;;;;;;17.67;14.67;;;;;;;;5128873;27;10325;-74
2022/06/13 08:29:32;;;;;;;;;5.00;5.00;;;;;;;;5130633;27;22968;-74
2022/06/13 08:31:57;;;;;;;;;13.33;13.33;;;;;;;;5132344;27;23522;-75
2022/06/13 08:34:22;;;;;;;;;13.67;12.00;;;;;;;;5118456;28;23405;-77
2022/06/13 08:36:48;;;;;;;;;6.00;6.00;;;;;;;;5099210;28;10715;-74
2022/06/13 08:39:13;;;;;;;;;5.33;5.33;;;;;;;;5119751;28;22141;-75
2022/06/13 08:41:48;;;;;;;;;5.00;5.00;;;;;;;;5120051;28;11272;-75
2022/06/13 08:44:32;;;;;;;;;6.50;6.50;;;;;;;;5101806;28;8864;-74
2022/06/13 08:47:12;;;;;;;;;17.33;16.67;;;;;;;;5119331;27;11439;-75
2022/06/13 08:49:42;;;;;;;;;19.67;18.67;;;;;;;;5119785;28;22438;-75
2022/06/13 08:52:13;;;;;;;;;15.50;13.75;;;;;;;;5119768;28;10643;-75
2022/06/13 08:54:40;;;;;;;;;16.25;14.00;;;;;;;;5119744;28;11443;-75
2022/06/13 08:57:08;;;;;;;;;13.50;12.50;;;;;;;;5120659;28;11493;-74
2022/06/13 08:59:37;;;;;;;;;16.33;16.33;;;;;;;;5101160;28;13400;-75
2022/06/13 09:02:15;;;;;;;;;15.00;14.00;;;;;;;;5119831;28;11446;-75
2022/06/13 09:04:43;;;;;;;;;13.00;9.50;;;;;;;;5120731;28;11631;-74
2022/06/13 09:07:23;;;;;;;;;7.75;7.50;;;;;;;;5100721;28;23480;-75
2022/06/13 09:09:57;;;;;;;;;9.75;9.75;;;;;;;;5119217;28;21711;-74
2022/06/13 09:12:22;;;;;;;;;16.67;16.67;;;;;;;;5101373;28;14920;-74
2022/06/13 09:14:52;;;;;;;;;15.00;14.00;;;;;;;;5119162;28;22372;-74
2022/06/13 09:17:37;;;;;;;;;17.00;15.67;;;;;;;;5119806;28;11685;-74
2022/06/13 09:20:03;;;;;;;;;21.67;16.67;;;;;;;;5100725;28;13665;-74
2022/06/13 09:22:40;;;;;;;;;16.00;13.00;;;;;;;;5119177;28;12168;-74
2022/06/13 09:25:16;;;;;;;;;15.33;15.00;;;;;;;;5101143;28;15594;-74
2022/06/13 09:27:57;;;;;;;;;5.75;5.25;;;;;;;;5119628;28;10999;-74
2022/06/13 09:30:24;;;;;;;;;13.00;13.00;;;;;;;;5119510;28;22479;-74
2022/06/13 09:32:58;;;;;;;;;6.00;6.00;;;;;;;;5119650;28;23532;-75
2022/06/13 09:35:23;;;;;;;;;9.00;5.25;;;;;;;;5121848;27;22797;-74
2022/06/13 09:37:55;;;;;;;;;11.67;10.67;;;;;;;;5125744;27;11581;-73
2022/06/13 09:40:27;;;;;;;;;14.67;14.00;;;;;;;;5124482;27;23263;-74
2022/06/13 09:42:52;;;;;;;;;11.33;8.67;;;;;;;;5123137;27;11452;-76
2022/06/13 09:45:17;;;;;;;;;7.00;7.00;;;;;;;;5127729;27;21435;-76
2022/06/13 09:47:59;;;;;;;;;4.33;4.00;;;;;;;;5127001;27;21710;-75
2022/06/13 09:50:48;;;;;;;;;4.00;4.00;;;;;;;;5130040;27;10911;-76
2022/06/13 09:53:18;;;;;;;;;5.75;5.75;;;;;;;;5129393;27;8938;-77
2022/06/13 09:55:51;;;;;;;;;5.75;5.25;;;;;;;;5132209;27;11625;-79
2022/06/13 09:58:23;;;;;;;;;7.00;6.00;;;;;;;;5124115;27;8928;-78
2022/06/13 10:00:57;;;;;;;;;4.75;4.50;;;;;;;;5128067;27;11695;-79
2022/06/13 10:03:32;;;;;;;;;5.00;5.00;;;;;;;;5109875;27;11988;-78
2022/06/13 10:06:02;;;;;;;;;7.00;5.25;;;;;;;;5128717;27;11687;-78
2022/06/13 10:08:35;;;;;;;;;7.50;7.25;;;;;;;;5128750;27;11376;-80
2022/06/13 10:11:01;;;;;;;;;7.00;5.75;;;;;;;;5128525;27;9743;-78
2022/06/13 10:13:52;;;;;;;;;8.00;6.00;;;;;;;;5128570;27;9593;-78
2022/06/13 10:16:28;;;;;;;;;11.00;9.00;;;;;;;;5129936;27;11917;-78
2022/06/13 10:18:59;;;;;;;;;5.75;5.75;;;;;;;;5130225;27;21789;-76
2022/06/13 10:21:37;;;;;;;;;6.25;6.25;;;;;;;;5131059;27;21431;-78
2022/06/13 10:24:21;;;;;;;;;5.00;5.00;;;;;;;;5126388;27;10588;-77
2022/06/13 10:27:06;;;;;;;;;11.50;10.25;;;;;;;;5129384;27;13090;-78
2022/06/13 10:29:50;;;;;;;;;15.33;14.67;;;;;;;;5127076;27;23596;-79
2022/06/13 10:32:21;;;;;;;;;5.25;5.00;;;;;;;;5127498;27;12044;-78
2022/06/13 10:34:59;;;;;;;;;5.75;5.75;;;;;;;;5125697;27;23549;-78
2022/06/13 10:37:31;;;;;;;;;8.00;8.00;;;;;;;;5128600;27;8789;-77
2022/06/13 10:39:58;;;;;;;;;11.25;9.75;;;;;;;;5127315;27;11603;-78
2022/06/13 10:42:25;;;;;;;;;5.00;4.00;;;;;;;;5127634;27;21632;-77
2022/06/13 10:44:50;;;;;;;;;6.25;6.25;;;;;;;;5128384;27;21384;-79
2022/06/13 10:47:18;;;;;;;;;7.67;6.00;;;;;;;;5108333;27;13738;-77
2022/06/13 10:49:50;;;;;;;;;6.25;5.00;;;;;;;;5128794;27;11385;-75
2022/06/13 10:52:18;;;;;;;;;7.00;7.00;;;;;;;;5128479;27;10373;-74
2022/06/13 10:54:45;;;;;;;;;7.25;6.25;;;;;;;;5126634;27;10618;-76
2022/06/13 10:57:17;;;;;;;;;5.75;5.50;;;;;;;;5126690;27;10421;-75
2022/06/13 10:59:43;;;;;;;;;6.00;6.00;;;;;;;;5130270;27;11652;-75
2022/06/13 11:02:17;;;;;;;;;5.33;5.00;;;;;;;;5107629;27;13581;-75
2022/06/13 11:04:43;;;;;;;;;9.67;9.67;;;;;;;;5129040;27;10539;-75
2022/06/13 11:07:11;;;;;;;;;10.00;10.00;;;;;;;;5126831;27;11438;-75
2022/06/13 11:09:37;;;;;;;;;5.00;5.00;;;;;;;;5127481;27;22503;-75
2022/06/13 11:12:23;;;;;;;;;7.75;7.00;;;;;;;;5131071;27;23530;-75
2022/06/13 11:23:13;;;;;;;;;5.00;5.00;;;;;;;;5129616;27;22375;-75
2022/06/13 11:25:39;;;;;;;;;11.00;11.00;;;;;;;;5111017;27;10709;-77
2022/06/13 11:28:25;;;;;;;;;7.00;6.00;;;;;;;;5111730;27;24553;-74
2022/06/13 11:30:50;;;;;;;;;9.25;9.25;;;;;;;;5129616;27;22439;-75
2022/06/13 11:33:23;;;;;;;;;6.67;6.67;;;;;;;;5130634;27;11594;-75
2022/06/13 11:35:57;;;;;;;;;8.25;8.25;;;;;;;;5129359;27;11497;-75
2022/06/13 11:38:27;;;;;;;;;3.75;3.25;;;;;;;;5129450;27;11538;-75
2022/06/13 11:40:55;;;;;;;;;4.00;4.00;;;;;;;;5129785;27;9736;-75
2022/06/13 11:43:30;;;;;;;;;11.75;11.75;;;;;;;;5129836;27;11494;-75
2022/06/13 11:45:57;;;;;;;;;5.50;5.50;;;;;;;;5130285;27;22308;-75
2022/06/13 11:48:22;;;;;;;;;4.00;2.75;;;;;;;;5128702;27;22257;-75
2022/06/13 11:50:52;;;;;;;;;14.00;14.00;;;;;;;;5129231;27;11293;-78
2022/06/13 11:53:37;;;;;;;;;13.00;12.67;;;;;;;;5120585;28;22319;-74
2022/06/13 11:56:05;;;;;;;;;7.00;5.67;;;;;;;;5121341;28;13130;-73
2022/06/13 11:58:32;;;;;;;;;11.00;8.67;;;;;;;;5120903;28;23570;-73
2022/06/13 12:01:02;;;;;;;;;3.00;3.00;;;;;;;;5121020;28;21633;-73
2022/06/13 12:03:28;;;;;;;;;9.00;7.00;;;;;;;;5127486;27;22974;-72
2022/06/13 12:06:07;;;;;;;;;4.67;4.67;;;;;;;;5129865;27;9108;-72
2022/06/13 12:08:32;;;;;;;;;3.00;3.00;;;;;;;;5131377;27;11516;-72
2022/06/13 12:11:00;;;;;;;;;7.00;7.00;;;;;;;;5129329;27;11561;-72
2022/06/13 12:13:27;;;;;;;;;10.67;10.67;;;;;;;;5113041;27;10899;-72
2022/06/13 12:15:58;;;;;;;;;8.33;8.33;;;;;;;;5131174;27;22317;-72
2022/06/13 12:18:54;;;;;;;;;6.00;6.00;;;;;;;;5129065;27;22241;-72
2022/06/13 12:21:19;;;;;;;;;5.33;5.33;;;;;;;;5112286;27;11559;-72
2022/06/13 12:23:50;;;;;;;;;6.00;6.00;;;;;;;;5130223;27;11515;-72
2022/06/13 12:26:24;;;;;;;;;4.00;4.00;;;;;;;;5128719;27;11682;-73
2022/06/13 12:28:52;;;;;;;;;4.00;4.00;;;;;;;;5132228;27;9225;-73
2022/06/13 12:31:38;;;;;;;;;4.00;4.00;;;;;;;;5136052;27;9337;-72
2022/06/13 12:34:10;;;;;;;;;8.00;8.00;;;;;;;;5081938;27;8945;-73
2022/06/13 12:36:47;;;;;;;;;6.00;6.00;;;;;;;;5129967;27;9033;-73
2022/06/13 12:39:28;;;;;;;;;6.00;6.00;;;;;;;;5109563;27;9454;-72
2022/06/13 12:41:53;;;;;;;;;10.75;9.75;;;;;;;;5109955;27;9255;-77
2022/06/13 12:44:30;;;;;;;;;11.00;9.33;;;;;;;;5127269;27;21367;-77
2022/06/13 12:47:01;;;;;;;;;10.33;9.00;;;;;;;;5130042;27;10507;-74
2022/06/13 12:49:48;;;;;;;;;11.50;10.50;;;;;;;;5128860;27;11595;-74
2022/06/13 12:52:25;;;;;;;;;5.67;5.67;;;;;;;;5126014;27;21927;-74
2022/06/13 12:54:51;;;;;;;;;9.50;9.25;;;;;;;;5135197;27;22585;-73
2022/06/13 12:57:35;;;;;;;;;9.50;8.50;;;;;;;;5140481;27;11621;-73
2022/06/13 13:00:07;;;;;;;;;9.50;9.50;;;;;;;;5138513;27;8842;-74
2022/06/13 13:02:36;;;;;;;;;10.33;7.00;;;;;;;;5132460;27;9420;-74
2022/06/13 13:05:07;;;;;;;;;12.00;8.67;;;;;;;;5140364;27;21785;-74
2022/06/13 13:07:44;;;;;;;;;10.33;9.00;;;;;;;;5141197;27;11973;-73
2022/06/13 13:10:16;;;;;;;;;12.33;10.33;;;;;;;;5141830;27;10560;-72
2022/06/13 13:13:00;;;;;;;;;10.67;10.67;;;;;;;;5140603;27;22830;-74
2022/06/13 13:15:25;;;;;;;;;10.00;9.67;;;;;;;;5122717;27;13572;-73
2022/06/13 13:18:02;;;;;;;;;11.00;11.00;;;;;;;;5122500;27;22566;-74
2022/06/13 13:20:48;;;;;;;;;9.00;9.00;;;;;;;;5120059;28;21720;-74
2022/06/13 13:23:16;;;;;;;;;9.00;7.67;;;;;;;;5118923;28;22978;-74
2022/06/13 13:25:44;;;;;;;;;5.75;5.75;;;;;;;;5120546;28;9818;-74
2022/06/13 13:28:12;;;;;;;;;10.67;10.67;;;;;;;;5119643;28;11395;-74
2022/06/13 13:30:42;;;;;;;;;4.50;4.50;;;;;;;;5119432;28;22363;-74
2022/06/13 13:33:24;;;;;;;;;5.50;4.00;;;;;;;;5119215;27;22351;-74
2022/06/13 13:36:04;;;;;;;;;11.00;10.00;;;;;;;;5120845;28;11384;-75
2022/06/13 13:38:34;;;;;;;;;13.00;11.33;;;;;;;;5126987;27;22288;-73
2022/06/13 13:41:04;;;;;;;;;5.00;4.25;;;;;;;;5140374;27;11732;-74
2022/06/13 13:43:35;;;;;;;;;11.00;10.00;;;;;;;;5138068;27;22970;-75
2022/06/13 13:46:18;;;;;;;;;6.75;6.75;;;;;;;;5128501;27;22438;-76
2022/06/13 13:49:19;;;;;;;;;10.00;9.67;;;;;;;;5139940;27;22410;-76
2022/06/13 13:51:47;;;;;;;;;8.75;8.00;;;;;;;;5051325;28;22152;-74
2022/06/13 13:54:26;;;;;;;;;10.25;9.50;;;;;;;;5111073;27;21777;-73
2022/06/13 13:56:57;;;;;;;;;10.50;9.75;;;;;;;;5127660;27;22827;-73
2022/06/13 13:59:27;;;;;;;;;8.75;8.50;;;;;;;;5126731;27;8816;-73
2022/06/13 14:02:12;;;;;;;;;2.00;2.00;;;;;;;;5128383;27;21513;-73
2022/06/13 14:05:07;;;;;;;;;3.25;3.25;;;;;;;;5078383;27;11886;-73
2022/06/13 14:07:44;;;;;;;;;10.00;8.50;;;;;;;;5008555;28;12031;-72
2022/06/13 14:10:12;;;;;;;;;10.75;9.75;;;;;;;;5024788;28;22747;-73
2022/06/13 14:12:56;;;;;;;;;10.00;10.00;;;;;;;;5009967;28;13183;-73
2022/06/13 14:15:30;;;;;;;;;9.25;8.50;;;;;;;;5025026;28;21897;-73
2022/06/13 14:17:55;;;;;;;;;9.25;8.50;;;;;;;;5067483;27;22537;-72
2022/06/13 14:20:24;;;;;;;;;10.33;9.00;;;;;;;;5108497;27;8844;-72
2022/06/13 14:22:54;;;;;;;;;9.50;9.25;;;;;;;;5127112;27;22833;-71
2022/06/13 14:25:22;;;;;;;;;10.25;10.25;;;;;;;;5126086;27;21642;-74
2022/06/13 14:27:50;;;;;;;;;11.00;11.00;;;;;;;;5108968;27;22584;-72
2022/06/13 14:33:02;;;;;;;;;2.25;2.25;;;;;;;;5128018;27;9505;-73
2022/06/13 14:35:42;;;;;;;;;8.33;8.33;;;;;;;;5124854;27;22164;-74
2022/06/13 14:38:07;;;;;;;;;9.75;9.00;;;;;;;;5099381;28;9794;-72
2022/06/13 14:40:38;;;;;;;;;7.33;7.00;;;;;;;;5118327;28;11283;-73
2022/06/13 14:43:27;;;;;;;;;4.75;3.50;;;;;;;;5118800;27;9516;-73
2022/06/13 14:45:55;;;;;;;;;5.00;5.00;;;;;;;;5017886;28;11618;-73
2022/06/13 14:48:29;;;;;;;;;8.00;8.00;;;;;;;;5018902;28;12610;-71
2022/06/13 14:50:54;;;;;;;;;8.50;8.00;;;;;;;;5019655;28;9730;-71
2022/06/13 14:53:37;;;;;;;;;3.33;3.33;;;;;;;;5019312;28;8862;-71
2022/06/13 14:56:11;;;;;;;;;7.00;7.00;;;;;;;;5009959;28;11782;-71
2022/06/13 14:58:43;;;;;;;;;9.25;7.50;;;;;;;;5122372;27;11943;-71
2022/06/13 15:01:20;;;;;;;;;7.00;7.00;;;;;;;;5121815;28;12510;-72
2022/06/13 15:03:58;;;;;;;;;7.75;7.75;;;;;;;;5103689;28;13593;-73
2022/06/13 15:06:24;;;;;;;;;7.50;6.00;;;;;;;;5122558;27;8923;-73
2022/06/13 15:09:10;;;;;;;;;6.25;5.75;;;;;;;;5122564;28;10588;-73
2022/06/13 15:11:39;;;;;;;;;5.50;5.25;;;;;;;;5126298;27;11651;-75
2022/06/13 15:14:09;;;;;;;;;5.25;5.25;;;;;;;;5134065;27;10421;-76
2022/06/13 15:16:34;;;;;;;;;4.75;4.75;;;;;;;;5111603;27;9131;-73
2022/06/13 15:19:03;;;;;;;;;3.00;3.00;;;;;;;;5140220;27;10280;-73
2022/06/13 15:21:30;;;;;;;;;3.75;3.75;;;;;;;;5140217;27;11662;-70
2022/06/13 15:23:59;;;;;;;;;4.75;4.75;;;;;;;;5138900;27;8896;-69
2022/06/13 15:26:28;;;;;;;;;6.25;4.50;;;;;;;;5125614;27;8940;-70
2022/06/13 15:28:56;;;;;;;;;7.00;5.50;;;;;;;;5142434;27;12065;-70
2022/06/13 15:31:25;;;;;;;;;6.25;5.25;;;;;;;;5139542;27;10368;-70
2022/06/13 15:34:06;;;;;;;;;5.00;5.00;;;;;;;;5142824;27;11379;-70
2022/06/13 15:36:31;;;;;;;;;5.00;4.00;;;;;;;;5123255;27;11835;-70
2022/06/13 15:38:57;;;;;;;;;4.00;4.00;;;;;;;;5123869;27;8865;-70
2022/06/13 15:41:28;;;;;;;;;4.00;4.00;;;;;;;;5132785;27;8776;-69
2022/06/13 15:43:55;;;;;;;;;3.25;3.00;;;;;;;;5130199;27;8820;-69
2022/06/13 15:46:20;;;;;;;;;7.00;6.00;;;;;;;;5129739;27;11510;-69
2022/06/13 15:48:46;;;;;;;;;6.00;4.00;;;;;;;;5139110;27;10767;-69
2022/06/13 15:51:12;;;;;;;;;4.67;4.67;;;;;;;;5141658;27;9439;-68
2022/06/13 15:53:38;;;;;;;;;5.00;5.00;;;;;;;;5129060;27;12478;-69
2022/06/13 15:56:03;;;;;;;;;7.00;6.00;;;;;;;;5135841;27;11305;-70
2022/06/13 15:58:29;;;;;;;;;9.00;7.67;;;;;;;;5141047;27;8797;-71
2022/06/13 16:00:55;;;;;;;;;6.00;6.00;;;;;;;;5132459;27;11361;-69
2022/06/13 16:03:22;;;;;;;;;5.00;5.00;;;;;;;;5141452;27;12783;-70
2022/06/13 16:05:59;;;;;;;;;4.00;4.00;;;;;;;;5141223;27;9627;-70